Time;durP1;ratioP1;P1;durP2;ratioP2;P2;SDS_P1;SDS_P2;PMS_P1;PMS_P2;Temp;Humidity;BMP_temperature;BMP_pressure;BME280_temperature;BME280_humidity;BME280_pressure;Samples;Min_cycle;Max_cycle;Signal;HPM_P1;HPM_P2
2022/12/17 13:08:09;;;;;;;44.33;20.33;;;;;;;1.50;57.60;97979.72;5014453;28;20154;-74
2022/12/17 13:10:35;;;;;;;47.22;18.98;;;;;;;1.36;57.63;97979.63;5003019;28;20283;-74
2022/12/17 13:13:16;;;;;;;43.50;18.25;;;;;;;1.54;57.40;97974.28;5002440;27;20162;-73
2022/12/17 13:15:46;;;;;;;58.55;22.13;;;;;;;1.47;57.06;97974.94;4993775;28;20193;-72
2022/12/17 13:18:17;;;;;;;53.97;23.02;;;;;;;1.61;56.88;97976.03;4991963;28;20631;-74
2022/12/17 13:20:42;;;;;;;60.10;25.05;;;;;;;1.54;57.07;97972.50;5040286;27;20253;-73
2022/12/17 13:23:08;;;;;;;55.22;23.00;;;;;;;1.62;56.71;97975.03;4980087;28;20341;-74
2022/12/17 13:25:33;;;;;;;71.43;28.05;;;;;;;1.57;56.76;97973.94;5016503;28;20602;-73
2022/12/17 13:27:59;;;;;;;67.28;25.67;;;;;;;1.60;57.00;97966.72;4993630;28;20191;-73
2022/12/17 13:30:35;;;;;;;98.22;33.63;;;;;;;1.78;56.98;97969.03;4993424;28;20423;-74
2022/12/17 13:33:26;;;;;;;67.40;25.55;;;;;;;1.82;56.66;97964.38;4998093;28;20339;-74
2022/12/17 13:36:12;;;;;;;58.35;22.08;;;;;;;1.62;57.45;97966.53;4987243;28;20363;-74
2022/12/17 13:38:59;;;;;;;67.32;22.73;;;;;;;1.90;56.21;97971.22;4982681;28;20559;-73
2022/12/17 13:41:30;;;;;;;80.28;27.98;;;;;;;1.87;55.78;97972.38;5010499;28;20290;-74
2022/12/17 13:43:58;;;;;;;84.30;29.77;;;;;;;1.83;56.42;97965.94;4982982;28;20269;-74
2022/12/17 13:46:28;;;;;;;79.65;25.50;;;;;;;1.92;56.36;97975.22;4991948;28;20199;-74
2022/12/17 13:48:56;;;;;;;32.35;12.40;;;;;;;1.91;55.66;97971.03;5004266;28;20210;-74
2022/12/17 13:51:23;;;;;;;22.83;10.32;;;;;;;1.87;55.85;97965.44;4997145;28;20201;-73
2022/12/17 13:54:00;;;;;;;129.43;41.78;;;;;;;2.04;55.63;97967.94;4987277;28;20887;-74
2022/12/17 13:56:28;;;;;;;60.20;24.27;;;;;;;1.94;55.70;97975.06;5010288;28;20272;-74
2022/12/17 13:58:55;;;;;;;25.15;10.63;;;;;;;1.95;55.76;97977.44;4982760;28;20169;-74
2022/12/17 14:01:20;;;;;;;34.22;13.48;;;;;;;1.82;55.66;97972.06;5006470;28;20204;-74
2022/12/17 14:03:55;;;;;;;36.67;14.23;;;;;;;2.05;55.59;97980.59;5001901;28;20108;-73
2022/12/17 14:06:21;;;;;;;21.67;9.77;;;;;;;2.01;55.24;97970.84;5013322;28;20204;-74
2022/12/17 14:08:48;;;;;;;9.60;5.30;;;;;;;2.10;55.43;97981.88;5000218;28;20622;-73
2022/12/17 14:13:58;;;;;;;26.90;11.43;;;;;;;2.03;55.01;97977.41;4989200;28;20236;-74
2022/12/17 14:16:23;;;;;;;40.97;17.88;;;;;;;2.21;54.85;97977.13;4999819;28;20278;-73
2022/12/17 14:18:54;;;;;;;32.58;16.40;;;;;;;2.40;54.36;97981.03;4981319;28;20260;-74
2022/12/17 14:21:20;;;;;;;28.27;15.00;;;;;;;2.45;54.14;97977.94;5004193;27;20415;-73
2022/12/17 14:23:46;;;;;;;25.25;13.73;;;;;;;2.37;54.54;97976.22;5006491;27;20261;-74
2022/12/17 14:26:12;;;;;;;26.23;14.93;;;;;;;2.25;54.97;97975.81;5027332;27;20142;-73
2022/12/17 14:28:46;;;;;;;19.42;10.77;;;;;;;2.34;55.12;97980.91;4992991;28;20199;-73
2022/12/17 14:31:32;;;;;;;17.95;8.70;;;;;;;2.24;54.56;97986.25;5011401;28;20929;-73
2022/12/17 14:34:06;;;;;;;23.95;10.27;;;;;;;2.10;55.63;97984.44;4995640;27;20296;-74
2022/12/17 14:36:33;;;;;;;19.92;9.45;;;;;;;1.96;55.64;97986.75;5018390;28;20638;-73
2022/12/17 14:39:00;;;;;;;18.27;9.48;;;;;;;1.92;55.08;97982.94;5021407;27;20208;-74
2022/12/17 14:44:19;;;;;;;16.88;9.48;;;;;;;1.91;56.12;97989.03;5002425;28;20615;-74
2022/12/17 14:46:44;;;;;;;16.30;9.57;;;;;;;1.79;55.86;97986.03;5009588;28;20689;-74
2022/12/17 14:49:18;;;;;;;13.90;7.20;;;;;;;1.89;55.62;97988.41;4989029;28;20181;-73
2022/12/17 14:51:43;;;;;;;24.92;11.32;;;;;;;1.67;55.97;97990.72;5007804;28;20334;-74
2022/12/17 14:54:18;;;;;;;17.90;10.52;;;;;;;1.75;55.85;97992.47;4992363;28;20199;-73
2022/12/17 14:56:45;;;;;;;28.23;14.48;;;;;;;1.59;56.25;97995.09;5000055;28;20201;-74
2022/12/17 14:59:30;;;;;;;50.13;24.00;;;;;;;1.79;56.30;97998.88;5014639;28;20196;-73
2022/12/17 15:01:55;;;;;;;76.72;32.80;;;;;;;1.59;56.40;97995.09;5029632;27;20221;-73
2022/12/17 15:04:21;;;;;;;28.08;13.35;;;;;;;1.52;56.51;98002.66;4993882;27;20615;-74
2022/12/17 15:06:47;;;;;;;28.00;14.15;;;;;;;1.42;56.44;97990.03;5028281;27;20198;-73
2022/12/17 15:09:13;;;;;;;22.42;11.57;;;;;;;1.43;56.74;97998.53;5004787;27;20631;-73
2022/12/17 15:11:38;;;;;;;18.52;11.25;;;;;;;1.44;56.71;98007.81;4994476;27;20222;-73
2022/12/17 15:14:04;;;;;;;18.38;9.13;;;;;;;1.39;57.00;98013.47;5011713;28;20616;-73
2022/12/17 15:16:29;;;;;;;15.57;9.35;;;;;;;1.27;57.46;98014.78;4992068;27;20350;-73
2022/12/17 15:18:55;;;;;;;16.13;8.50;;;;;;;1.24;57.11;98018.47;4989664;28;20274;-74
2022/12/17 15:21:20;;;;;;;22.65;12.27;;;;;;;1.20;57.52;98014.63;5033190;27;20631;-73
2022/12/17 15:23:46;;;;;;;18.13;11.52;;;;;;;1.09;57.73;98015.75;5011625;27;20212;-73
2022/12/17 15:26:14;;;;;;;22.02;11.15;;;;;;;1.08;57.28;98015.91;4999064;27;20696;-73
2022/12/17 15:28:40;;;;;;;22.00;12.43;;;;;;;1.08;57.98;98013.34;5013504;28;20273;-73
2022/12/17 15:31:05;;;;;;;32.38;15.63;;;;;;;0.99;57.70;98017.69;4981105;27;20216;-73
2022/12/17 15:33:30;;;;;;;22.20;11.00;;;;;;;0.97;58.02;98029.09;5012423;28;20167;-72
2022/12/17 15:35:57;;;;;;;27.73;13.57;;;;;;;0.95;57.78;98031.00;4985437;27;20256;-73
2022/12/17 15:38:23;;;;;;;48.72;20.40;;;;;;;0.78;58.33;98032.78;4975884;28;20668;-73
2022/12/17 15:40:48;;;;;;;444.50;144.80;;;;;;;0.77;58.35;98034.50;4993963;28;20184;-73
2022/12/17 15:43:14;;;;;;;272.83;96.15;;;;;;;0.70;58.83;98031.81;5009945;27;20695;-73
2022/12/17 15:45:48;;;;;;;162.48;66.63;;;;;;;0.69;59.42;98037.09;4991044;28;20210;-73
2022/12/17 15:48:15;;;;;;;162.88;66.00;;;;;;;0.63;59.21;98045.41;4999521;27;20216;-73
2022/12/17 15:50:41;;;;;;;389.67;130.85;;;;;;;0.61;59.04;98049.91;4996495;27;20535;-72
2022/12/17 15:53:07;;;;;;;146.52;53.03;;;;;;;0.58;58.91;98053.56;5016314;27;20195;-73
2022/12/17 15:55:33;;;;;;;42.15;18.92;;;;;;;0.48;58.81;98045.22;5002130;27;20176;-73
2022/12/17 15:57:58;;;;;;;31.23;16.60;;;;;;;0.46;58.58;98047.94;5008854;28;20679;-73
2022/12/17 16:00:24;;;;;;;31.58;15.63;;;;;;;0.42;59.11;98044.09;4977533;27;20185;-73
2022/12/17 16:02:49;;;;;;;26.25;13.45;;;;;;;0.32;59.03;98046.81;5013043;28;20373;-73
2022/12/17 16:05:15;;;;;;;19.80;11.40;;;;;;;0.28;59.35;98045.53;4997662;28;20193;-73
2022/12/17 16:07:42;;;;;;;18.80;11.07;;;;;;;0.23;59.54;98042.63;5007520;27;20285;-73
2022/12/17 16:10:08;;;;;;;16.42;8.85;;;;;;;0.21;59.36;98041.16;4996208;27;20692;-73
2022/12/17 16:12:34;;;;;;;16.42;8.50;;;;;;;0.20;59.41;98044.72;5016233;27;20241;-73
2022/12/17 16:14:59;;;;;;;15.32;7.97;;;;;;;0.09;59.69;98044.03;5013069;27;20384;-73
2022/12/17 16:17:24;;;;;;;16.73;8.05;;;;;;;0.02;59.86;98055.88;5009767;28;20257;-73
2022/12/17 16:19:50;;;;;;;14.00;8.00;;;;;;;-0.03;60.19;98056.31;5032203;27;20235;-72
2022/12/17 16:22:15;;;;;;;15.65;7.32;;;;;;;-0.08;59.72;98053.41;5015640;27;20261;-72
2022/12/17 16:24:40;;;;;;;12.45;7.22;;;;;;;-0.08;59.60;98058.53;5009810;28;20250;-73
2022/12/17 16:27:06;;;;;;;15.88;8.40;;;;;;;-0.14;59.84;98055.78;5022796;27;20704;-72
2022/12/17 16:29:31;;;;;;;20.50;10.57;;;;;;;-0.17;59.78;98051.78;4993029;28;20174;-73
2022/12/17 16:31:58;;;;;;;17.08;8.63;;;;;;;-0.17;59.91;98046.69;4980736;28;20171;-72
2022/12/17 16:34:25;;;;;;;12.82;6.60;;;;;;;-0.25;59.55;98044.09;4991227;27;20319;-73
2022/12/17 16:36:50;;;;;;;14.70;7.60;;;;;;;-0.27;59.56;98038.31;5015922;28;20692;-73
2022/12/17 16:39:17;;;;;;;15.57;8.27;;;;;;;-0.23;59.10;98042.97;5030215;27;20180;-73
2022/12/17 16:41:43;;;;;;;15.07;6.95;;;;;;;-0.27;59.37;98043.44;4981105;28;20249;-73
2022/12/17 16:44:08;;;;;;;10.98;6.35;;;;;;;-0.28;58.95;98040.06;4992525;27;20669;-72
2022/12/17 16:46:35;;;;;;;14.10;7.20;;;;;;;-0.22;58.71;98039.44;5010319;27;20285;-71
2022/12/17 16:49:06;;;;;;;12.35;5.70;;;;;;;-0.28;58.67;98040.06;4993314;28;20297;-72
2022/12/17 16:51:32;;;;;;;21.50;11.55;;;;;;;-0.40;59.01;98044.63;4975837;28;20262;-72
2022/12/17 16:53:57;;;;;;;45.83;22.30;;;;;;;-0.41;58.89;98048.16;4981321;28;20174;-72
2022/12/17 16:56:32;;;;;;;54.90;25.80;;;;;;;-0.43;58.47;98049.25;4984193;28;20251;-72
2022/12/17 16:58:58;;;;;;;53.17;24.77;;;;;;;-0.46;58.83;98049.59;5012936;28;20272;-72
2022/12/17 17:01:27;;;;;;;107.72;43.97;;;;;;;-0.49;58.53;98048.13;5009822;28;20610;-72
2022/12/17 17:03:52;;;;;;;157.57;62.75;;;;;;;-0.53;58.31;98058.81;4975914;28;20193;-72
2022/12/17 17:06:19;;;;;;;87.85;38.53;;;;;;;-0.64;58.71;98057.31;5001630;28;20254;-72
2022/12/17 17:08:45;;;;;;;69.30;29.02;;;;;;;-0.60;58.62;98067.09;4997972;27;20201;-73
2022/12/17 17:11:12;;;;;;;58.55;28.17;;;;;;;-0.62;58.56;98074.13;5016072;27;20638;-72
2022/12/17 17:13:37;;;;;;;57.45;25.08;;;;;;;-0.76;58.71;98069.53;5004225;28;20099;-72
2022/12/17 17:16:04;;;;;;;57.67;24.92;;;;;;;-0.84;58.53;98065.19;5021023;28;20210;-72
2022/12/17 17:18:29;;;;;;;41.58;20.60;;;;;;;-0.90;58.75;98067.53;5010331;28;20258;-72
2022/12/17 17:21:31;;;;;;;34.63;14.23;;;;;;;-0.93;58.69;98066.06;5019063;28;20200;-72
2022/12/17 17:24:01;;;;;;;27.50;11.80;;;;;;;-1.16;59.04;98071.63;5023740;27;20193;-72
2022/12/17 17:26:28;;;;;;;91.00;33.92;;;;;;;-1.18;59.31;98063.31;5018710;28;20253;-72
2022/12/17 17:28:54;;;;;;;115.50;39.25;;;;;;;-1.21;59.61;98060.25;5007431;28;20274;-72
2022/12/17 17:31:20;;;;;;;401.70;137.20;;;;;;;-1.23;59.56;98059.63;5013386;28;20584;-72
2022/12/17 17:33:47;;;;;;;303.60;103.28;;;;;;;-1.19;58.81;98066.03;4995634;28;20282;-72
2022/12/17 17:36:26;;;;;;;184.23;60.75;;;;;;;-1.05;58.66;98067.25;4991508;28;20168;-71
2022/12/17 17:38:56;;;;;;;57.38;25.25;;;;;;;-1.13;58.47;98078.22;5012141;28;20163;-72
2022/12/17 17:41:24;;;;;;;350.27;112.03;;;;;;;-1.32;59.23;98082.53;5009289;28;20223;-72
2022/12/17 17:43:54;;;;;;;101.55;37.05;;;;;;;-1.36;58.75;98083.75;5002949;28;20229;-72
2022/12/17 17:46:19;;;;;;;35.13;17.05;;;;;;;-1.49;59.47;98085.88;5002544;28;20301;-72
2022/12/17 17:48:46;;;;;;;17.90;8.77;;;;;;;-1.53;58.90;98090.44;5015217;28;20154;-72
2022/12/17 17:51:20;;;;;;;21.95;10.55;;;;;;;-1.52;59.06;98081.06;4985184;28;20202;-72
2022/12/17 17:53:48;;;;;;;15.48;7.57;;;;;;;-1.56;58.94;98079.72;5002918;28;20275;-72
2022/12/17 17:56:16;;;;;;;22.73;11.10;;;;;;;-1.72;59.72;98082.94;4996438;28;20633;-72
2022/12/17 17:58:59;;;;;;;28.27;13.13;;;;;;;-1.68;59.33;98091.09;5018611;27;20272;-72
2022/12/17 18:01:26;;;;;;;23.27;10.88;;;;;;;-1.76;59.87;98100.28;5022485;28;20658;-72
2022/12/17 18:03:54;;;;;;;18.92;9.43;;;;;;;-1.74;59.54;98100.94;5014741;28;20254;-72
2022/12/17 18:06:19;;;;;;;24.13;11.55;;;;;;;-1.88;60.37;98098.88;5000878;27;20727;-72
2022/12/17 18:08:45;;;;;;;36.22;18.75;;;;;;;-2.01;60.07;98094.09;5013481;27;20279;-72
2022/12/17 18:11:12;;;;;;;29.27;15.27;;;;;;;-2.01;60.06;98106.84;5009962;28;20267;-72
2022/12/17 18:13:53;;;;;;;27.67;15.25;;;;;;;-2.07;60.40;98108.22;5016264;28;20790;-72
2022/12/17 18:16:27;;;;;;;31.23;15.82;;;;;;;-1.93;59.24;98108.69;4994393;28;20167;-72
2022/12/17 18:18:54;;;;;;;24.35;13.18;;;;;;;-2.05;59.13;98104.72;4985295;28;20279;-72
2022/12/17 18:21:20;;;;;;;27.27;14.65;;;;;;;-2.16;58.74;98109.06;5003117;27;20209;-72
2022/12/17 18:23:46;;;;;;;55.95;26.88;;;;;;;-2.20;58.87;98115.38;5017687;28;20136;-72
2022/12/17 18:26:17;;;;;;;45.83;21.02;;;;;;;-2.24;58.65;98126.81;5020439;27;20193;-71
2022/12/17 18:28:43;;;;;;;30.27;14.77;;;;;;;-2.43;59.31;98107.28;4996855;28;20300;-71
2022/12/17 18:31:15;;;;;;;38.60;18.90;;;;;;;-2.29;59.11;98113.69;4989223;28;20272;-71
2022/12/17 18:33:42;;;;;;;34.00;16.20;;;;;;;-2.44;58.69;98126.06;4993027;28;20314;-71
2022/12/17 18:36:10;;;;;;;38.28;15.52;;;;;;;-2.45;59.15;98115.06;4994743;27;20181;-72
2022/12/17 18:38:35;;;;;;;29.92;14.35;;;;;;;-2.49;58.61;98115.47;4993994;28;20289;-72
2022/12/17 18:43:22;;;;;;;32.63;17.15;;;;;;;-2.37;58.87;98113.56;4994316;28;20237;-71
2022/12/17 18:43:55;;;;;;;28.48;16.15;;;;;;;-2.44;58.27;98113.31;5010251;27;20683;-71
2022/12/17 18:46:21;;;;;;;31.15;16.70;;;;;;;-2.43;57.66;98112.38;5013095;27;20684;-71
2022/12/17 18:48:47;;;;;;;26.20;14.63;;;;;;;-2.50;58.08;98122.31;5002270;27;20216;-71
2022/12/17 18:51:12;;;;;;;28.70;15.70;;;;;;;-2.47;58.74;98114.41;5012413;28;20199;-71
2022/12/17 18:53:38;;;;;;;27.73;15.73;;;;;;;-2.40;58.13;98118.94;5012337;27;20259;-71
2022/12/17 18:56:08;;;;;;;29.55;16.05;;;;;;;-2.31;58.23;98120.66;4998086;27;20182;-70
2022/12/17 18:58:34;;;;;;;31.25;14.95;;;;;;;-2.38;58.33;98125.50;5014479;28;20631;-72
2022/12/17 19:00:59;;;;;;;32.97;16.70;;;;;;;-2.33;57.66;98127.63;4992085;27;20336;-72
2022/12/17 19:03:24;;;;;;;30.42;16.33;;;;;;;-2.39;58.12;98126.44;5013987;27;20285;-71
2022/12/17 19:05:50;;;;;;;33.60;17.15;;;;;;;-2.38;57.52;98135.72;5011012;27;20693;-71
2022/12/17 19:08:15;;;;;;;41.60;23.08;;;;;;;-2.45;57.73;98135.47;4997857;27;20761;-71
2022/12/17 19:10:41;;;;;;;38.10;21.90;;;;;;;-2.35;58.03;98130.31;5016846;27;20261;-71
2022/12/17 19:13:06;;;;;;;40.83;20.67;;;;;;;-2.41;57.78;98125.78;5024676;27;20189;-71
2022/12/17 19:15:34;;;;;;;31.58;17.23;;;;;;;-2.38;57.59;98129.78;5014433;27;20559;-71
2022/12/17 19:17:59;;;;;;;27.75;15.52;;;;;;;-2.49;57.69;98118.81;4994373;27;20479;-71
2022/12/17 19:20:24;;;;;;;26.85;14.05;;;;;;;-2.43;58.34;98129.41;4997420;27;20234;-71
2022/12/17 19:22:50;;;;;;;24.00;11.05;;;;;;;-2.48;58.24;98132.38;5039271;27;20266;-71
2022/12/17 19:25:15;;;;;;;17.38;8.75;;;;;;;-2.54;57.78;98128.63;5015040;28;20371;-71
2022/12/17 19:27:40;;;;;;;18.27;9.88;;;;;;;-2.50;58.31;98131.69;4997929;27;20280;-71
2022/12/17 19:30:06;;;;;;;18.88;10.55;;;;;;;-2.48;58.13;98128.06;5002294;27;20293;-71
2022/12/17 19:32:32;;;;;;;17.98;8.68;;;;;;;-2.52;57.79;98131.03;5001471;27;20240;-71
2022/12/17 19:34:57;;;;;;;17.30;8.77;;;;;;;-2.52;57.68;98129.31;5015419;27;20276;-71
2022/12/17 19:37:22;;;;;;;20.80;9.82;;;;;;;-2.54;57.91;98125.28;5032796;27;20213;-71
2022/12/17 19:39:48;;;;;;;21.65;11.13;;;;;;;-2.55;57.20;98123.66;4994060;28;20762;-71
2022/12/17 19:42:23;;;;;;;36.88;21.02;;;;;;;-2.64;57.77;98120.19;4997188;27;20233;-71
2022/12/17 19:44:50;;;;;;;32.65;17.02;;;;;;;-2.74;57.39;98127.03;5019327;27;20594;-71
2022/12/17 19:47:15;;;;;;;25.55;13.10;;;;;;;-2.74;58.37;98116.84;4997676;27;20664;-71
2022/12/17 19:49:40;;;;;;;23.58;13.80;;;;;;;-2.72;57.63;98114.97;4997461;28;20197;-71
2022/12/17 19:52:06;;;;;;;24.67;13.18;;;;;;;-2.74;57.88;98114.28;4993011;27;20273;-71
2022/12/17 19:54:31;;;;;;;28.08;14.82;;;;;;;-2.73;57.84;98121.00;5016257;27;20151;-72
2022/12/17 19:56:56;;;;;;;27.52;14.50;;;;;;;-2.85;58.43;98118.59;5018057;27;20208;-71
2022/12/17 19:59:22;;;;;;;25.25;12.88;;;;;;;-2.89;58.31;98117.28;5006591;27;20196;-71
2022/12/17 20:01:47;;;;;;;25.77;13.52;;;;;;;-2.91;58.81;98124.25;5018849;27;20210;-71
2022/12/17 20:04:14;;;;;;;28.45;12.80;;;;;;;-2.78;58.09;98130.81;5014649;27;20718;-71
2022/12/17 20:06:40;;;;;;;26.27;13.48;;;;;;;-2.81;58.44;98134.44;4995681;27;20642;-71
2022/12/17 20:09:06;;;;;;;26.65;13.77;;;;;;;-2.75;57.63;98145.84;5011280;27;20213;-71
2022/12/17 20:11:31;;;;;;;21.70;10.57;;;;;;;-2.75;58.22;98143.28;5014675;27;20265;-71
2022/12/17 20:14:17;;;;;;;21.38;10.25;;;;;;;-2.60;57.33;98134.28;5006935;27;20177;-71
2022/12/17 20:16:48;;;;;;;19.95;9.85;;;;;;;-2.71;57.99;98136.97;5010595;27;20706;-71
2022/12/17 20:19:19;;;;;;;22.17;12.23;;;;;;;-2.74;58.11;98127.88;5014698;28;20183;-71
2022/12/17 20:21:44;;;;;;;42.63;27.52;;;;;;;-2.94;58.77;98131.34;5014252;27;20174;-71
2022/12/17 20:24:11;;;;;;;20.20;13.13;;;;;;;-2.93;58.56;98135.50;5003104;27;20684;-71
2022/12/17 20:26:37;;;;;;;19.20;9.48;;;;;;;-2.96;59.62;98131.50;5016627;27;20103;-71
2022/12/17 20:29:03;;;;;;;24.50;12.68;;;;;;;-3.02;59.37;98135.38;5017391;27;20191;-71
2022/12/17 20:31:28;;;;;;;26.42;16.05;;;;;;;-3.05;58.96;98129.72;5011961;27;20188;-71
2022/12/17 20:33:54;;;;;;;23.38;10.18;;;;;;;-3.07;57.94;98136.72;5028679;27;20651;-71
2022/12/17 20:36:20;;;;;;;15.55;9.40;;;;;;;-3.09;58.96;98148.78;4987435;28;20202;-71
2022/12/17 20:38:45;;;;;;;22.25;9.77;;;;;;;-3.13;58.80;98134.72;5012943;27;20709;-71
2022/12/17 20:41:17;;;;;;;19.60;9.25;;;;;;;-3.08;58.94;98137.66;5009836;27;20287;-71
2022/12/17 20:43:43;;;;;;;20.27;9.52;;;;;;;-3.25;58.38;98144.22;4994850;27;20166;-71
2022/12/17 20:46:09;;;;;;;18.48;9.00;;;;;;;-3.24;58.22;98145.81;4975022;27;20272;-71
2022/12/17 20:48:38;;;;;;;23.27;10.00;;;;;;;-3.25;57.96;98141.66;5038025;27;20630;-71
2022/12/17 20:51:22;;;;;;;22.48;10.45;;;;;;;-3.08;59.02;98137.66;5031998;27;20561;-71
2022/12/17 20:53:52;;;;;;;19.55;9.82;;;;;;;-3.04;58.85;98139.78;4995903;28;20619;-71
2022/12/17 20:56:20;;;;;;;29.80;13.63;;;;;;;-3.07;58.83;98140.09;5000844;27;20216;-71
2022/12/17 20:58:45;;;;;;;32.53;16.50;;;;;;;-3.07;59.04;98144.34;4998879;27;20173;-71
2022/12/17 21:01:17;;;;;;;24.45;12.88;;;;;;;-3.11;58.62;98145.56;4995738;28;20291;-71
2022/12/17 21:03:42;;;;;;;22.50;9.93;;;;;;;-3.26;58.46;98135.75;5008181;27;20181;-71
2022/12/17 21:06:13;;;;;;;26.15;11.05;;;;;;;-3.52;57.71;98144.84;4997689;28;20197;-70
2022/12/17 21:08:39;;;;;;;31.13;15.57;;;;;;;-3.60;57.91;98137.84;4996855;27;20760;-71
2022/12/17 21:11:05;;;;;;;16.42;8.80;;;;;;;-3.67;57.70;98136.75;4995206;28;20273;-71
2022/12/17 21:13:31;;;;;;;19.35;9.30;;;;;;;-3.72;57.61;98134.59;5000394;27;20200;-71
2022/12/17 21:16:02;;;;;;;24.08;11.05;;;;;;;-3.67;58.09;98135.00;5031003;27;20255;-71
2022/12/17 21:18:29;;;;;;;32.72;16.00;;;;;;;-3.89;57.69;98133.50;5012639;28;20193;-71
2022/12/17 21:20:59;;;;;;;74.68;32.13;;;;;;;-3.99;58.37;98141.09;5002907;28;20272;-71
2022/12/17 21:23:25;;;;;;;62.55;28.00;;;;;;;-3.99;57.44;98141.09;5006654;28;20700;-71
2022/12/17 21:26:05;;;;;;;32.00;15.88;;;;;;;-3.95;57.75;98142.41;5013879;27;20726;-71
2022/12/17 21:28:32;;;;;;;28.52;11.18;;;;;;;-4.03;58.08;98137.16;5014612;28;20658;-71
2022/12/17 21:30:58;;;;;;;25.08;10.60;;;;;;;-4.10;57.61;98141.16;4989333;27;20292;-71
2022/12/17 21:33:24;;;;;;;36.75;17.35;;;;;;;-4.10;57.58;98153.88;5001865;27;20713;-71
2022/12/17 21:35:49;;;;;;;40.78;19.95;;;;;;;-4.06;58.34;98146.78;4989205;28;20193;-71
2022/12/17 21:38:15;;;;;;;52.03;23.73;;;;;;;-4.01;58.27;98149.75;5019823;27;20200;-71
2022/12/17 21:40:41;;;;;;;37.63;21.60;;;;;;;-4.01;58.47;98144.66;5022141;28;20615;-71
2022/12/17 21:43:06;;;;;;;33.17;15.90;;;;;;;-3.99;58.40;98148.72;4997745;27;20196;-71
2022/12/17 21:45:37;;;;;;;33.15;14.23;;;;;;;-3.78;58.22;98150.41;4977283;28;20383;-71
2022/12/17 21:48:04;;;;;;;27.20;12.60;;;;;;;-3.87;57.61;98151.16;5010722;27;20252;-71
2022/12/17 21:50:29;;;;;;;28.10;12.85;;;;;;;-3.98;57.93;98150.31;5008088;27;20224;-71
2022/12/17 21:52:55;;;;;;;31.40;14.40;;;;;;;-4.01;58.01;98150.59;5016538;28;20250;-71
2022/12/17 21:55:20;;;;;;;40.58;14.75;;;;;;;-4.09;57.35;98150.41;5020824;27;20646;-71
2022/12/17 21:57:46;;;;;;;37.10;13.15;;;;;;;-4.17;57.72;98158.66;5021221;27;20691;-71
2022/12/17 22:00:12;;;;;;;23.77;11.55;;;;;;;-4.14;57.51;98166.03;5016186;27;20261;-71
2022/12/17 22:02:37;;;;;;;28.55;12.05;;;;;;;-4.25;57.52;98170.38;5016995;27;20310;-71
2022/12/17 22:05:03;;;;;;;40.80;15.90;;;;;;;-4.25;57.44;98167.84;5019824;27;20267;-71
2022/12/17 22:07:28;;;;;;;32.47;14.60;;;;;;;-4.23;57.41;98166.81;5002856;27;20167;-71
2022/12/17 22:09:53;;;;;;;35.47;14.55;;;;;;;-4.17;57.70;98170.56;5029387;27;20290;-71
2022/12/17 22:15:03;;;;;;;36.88;15.88;;;;;;;-4.29;58.28;98171.59;4995948;27;20277;-71
2022/12/17 22:17:29;;;;;;;44.67;16.55;;;;;;;-4.43;56.80;98173.50;4997665;27;20212;-71
2022/12/17 22:19:54;;;;;;;53.53;19.30;;;;;;;-4.39;57.42;98174.84;5023257;27;20638;-71
2022/12/17 22:22:19;;;;;;;86.65;26.95;;;;;;;-4.40;56.95;98167.38;5019561;28;20247;-70
2022/12/17 22:24:45;;;;;;;135.75;35.75;;;;;;;-4.56;57.76;98173.69;4997105;27;20201;-71
2022/12/17 22:27:10;;;;;;;73.10;22.23;;;;;;;-4.51;57.44;98173.31;5024002;27;20170;-71
2022/12/17 22:35:04;;;;;;;32.28;13.45;;;;;;;-4.65;56.58;98161.72;4993788;28;20244;-71
2022/12/17 22:37:29;;;;;;;52.80;20.52;;;;;;;-4.82;57.30;98164.81;5023852;27;21017;-71
2022/12/17 22:39:55;;;;;;;104.07;29.75;;;;;;;-4.81;57.49;98162.16;4988616;28;20214;-71
2022/12/17 22:45:05;;;;;;;90.03;25.83;;;;;;;-4.81;56.93;98166.44;5008316;27;20643;-71
2022/12/17 22:47:31;;;;;;;46.38;16.58;;;;;;;-4.97;57.97;98164.28;4997762;27;20742;-71
2022/12/17 22:49:56;;;;;;;39.92;16.33;;;;;;;-5.14;58.92;98168.97;5013450;28;20334;-71
2022/12/17 22:52:21;;;;;;;41.13;14.88;;;;;;;-5.13;58.74;98169.78;5035962;27;20350;-71
2022/12/17 22:54:47;;;;;;;27.20;12.63;;;;;;;-5.21;59.49;98165.28;4995604;27;20275;-71
2022/12/17 22:57:12;;;;;;;33.40;14.57;;;;;;;-5.21;59.85;98162.75;5018297;28;20229;-71
2022/12/17 22:59:38;;;;;;;40.85;17.58;;;;;;;-5.06;59.63;98167.56;5015443;27;20216;-71
2022/12/17 23:02:03;;;;;;;43.35;22.50;;;;;;;-5.07;59.59;98169.31;5014438;27;20272;-71
2022/12/17 23:04:28;;;;;;;42.67;20.73;;;;;;;-4.98;59.11;98167.75;5017243;28;20197;-71
2022/12/17 23:06:54;;;;;;;40.83;21.10;;;;;;;-4.90;59.47;98173.03;5024239;27;20247;-71
2022/12/17 23:09:19;;;;;;;34.95;14.90;;;;;;;-4.86;59.36;98164.25;5040088;27;20171;-71
2022/12/17 23:11:46;;;;;;;32.58;14.90;;;;;;;-4.86;60.12;98171.06;5035590;27;20266;-71
2022/12/17 23:14:11;;;;;;;35.47;14.73;;;;;;;-4.77;59.17;98172.88;5015857;28;20209;-71
2022/12/17 23:16:38;;;;;;;33.88;16.02;;;;;;;-4.72;59.15;98166.47;5032211;27;20192;-71
2022/12/17 23:19:04;;;;;;;43.67;18.58;;;;;;;-4.70;59.23;98153.66;4994813;27;20162;-71
2022/12/17 23:21:29;;;;;;;49.22;19.27;;;;;;;-4.62;58.59;98160.69;4995258;28;20189;-71
2022/12/17 23:23:56;;;;;;;33.08;14.98;;;;;;;-4.63;58.24;98156.53;4985419;27;20274;-71
2022/12/17 23:26:30;;;;;;;36.40;16.58;;;;;;;-4.57;58.73;98166.19;5011886;27;20208;-71
2022/12/17 23:29:01;;;;;;;46.37;16.53;;;;;;;-4.66;58.82;98177.09;5009804;27;20162;-70
2022/12/17 23:31:31;;;;;;;44.85;18.92;;;;;;;-4.78;58.81;98176.31;5000792;28;20308;-71
2022/12/17 23:33:56;;;;;;;38.17;15.77;;;;;;;-4.89;57.54;98169.56;4991280;27;20165;-71
2022/12/17 23:36:23;;;;;;;33.80;14.60;;;;;;;-4.95;57.78;98170.88;4994414;28;20186;-71
2022/12/17 23:38:49;;;;;;;33.13;14.05;;;;;;;-5.04;57.42;98176.66;4990951;27;20669;-71
2022/12/17 23:41:20;;;;;;;35.00;14.82;;;;;;;-5.11;57.75;98176.31;4998216;28;20170;-71
2022/12/17 23:43:46;;;;;;;31.13;13.80;;;;;;;-5.37;57.77;98169.94;5004303;27;20277;-71
2022/12/17 23:46:12;;;;;;;29.65;14.02;;;;;;;-5.40;57.83;98160.03;4999916;27;20220;-71
2022/12/17 23:48:43;;;;;;;26.73;11.52;;;;;;;-5.42;57.47;98166.97;4997690;27;20539;-71
2022/12/17 23:51:09;;;;;;;29.88;12.40;;;;;;;-5.67;58.52;98169.66;5035766;27;20651;-71
2022/12/17 23:53:36;;;;;;;29.52;13.07;;;;;;;-5.71;58.28;98167.44;5008769;27;20201;-71
2022/12/17 23:56:09;;;;;;;29.40;13.32;;;;;;;-5.78;59.43;98161.25;4997188;27;20186;-70
2022/12/17 23:58:36;;;;;;;28.75;12.23;;;;;;;-5.86;59.04;98165.16;4989706;27;20192;-71
